Terminal Aerodrome Forecast
Issued by NWS

Home | Current Version | Previous Version | Graphics & Text | Print | Product List | Glossary On
Versions: 1 2 3 4 5 6 7 8 9 10 11 12 13 14 15 16 17 18 19
563
FTUS43 KIWX 200342 AAB
TAFSBN
TAF AMD
KSBN 200342Z 2004/2024 07010KT P6SM SCT015 OVC025
      TEMPO 2004/2006 P6SM OVC015
     FM200600 07010KT 4SM BR OVC010
     FM201500 11012KT 4SM BR VCSH OVC010
     FM201800 12013KT 3SM SHRA VCTS OVC010CB=

USA.gov is the U.S. government's official web portal to all federal, state and local government web resources and services.